Aviation Digital Data Service (ADDS)

Output produced by METARs form (0455 UTC 16 February 2019)
found at http://www.aviationweather.gov/metar/data/
 
METAR text: ENGM 160450Z 20010KT 170V230 9999 BKN007 01/M01 Q1010 NOSIG
Conditions at: ENGM (OSLO/GARDERMOEN , NO) observed 0450 UTC 16 February 2019
Temperature: 1.0°C (34°F)
Dewpoint: -1.0°C (30°F) [RH = 86%]
Pressure (altimeter): 29.82 inches Hg (1010.0 mb)
Winds: from the SSW (200 degrees) at 12 MPH (10 knots; 5.1 m/s)
Visibility: 6 or more miles (10+ km)
Ceiling: 700 feet AGL
Clouds: broken clouds at 700 feet AGL
Weather: no significant weather observed at this time

METAR text: ENGM 160420Z 22007KT 190V250 9999 BKN007 01/M01 Q1010
Conditions at: ENGM (OSLO/GARDERMOEN , NO) observed 0420 UTC 16 February 2019
Temperature: 1.0°C (34°F)
Dewpoint: -1.0°C (30°F) [RH = 86%]
Pressure (altimeter): 29.82 inches Hg (1010.0 mb)
Winds: from the SW (220 degrees) at 8 MPH (7 knots; 3.6 m/s)
Visibility: 6 or more miles (10+ km)
Ceiling: 700 feet AGL
Clouds: broken clouds at 700 feet AGL
Weather: no significant weather observed at this time

METAR text: ENGM 160350Z 20011KT 170V230 9999 BKN006 01/M01 Q1010
Conditions at: ENGM (OSLO/GARDERMOEN , NO) observed 0350 UTC 16 February 2019
Temperature: 1.0°C (34°F)
Dewpoint: -1.0°C (30°F) [RH = 86%]
Pressure (altimeter): 29.82 inches Hg (1010.0 mb)
Winds: from the SSW (200 degrees) at 13 MPH (11 knots; 5.7 m/s)
Visibility: 6 or more miles (10+ km)
Ceiling: 600 feet AGL
Clouds: broken clouds at 600 feet AGL
Weather: no significant weather observed at this time

METAR text: ENGM 160320Z 19011KT 9999 7000NE BKN006 01/M01 Q1011
Conditions at: ENGM (OSLO/GARDERMOEN , NO) observed 0320 UTC 16 February 2019
Temperature: 1.0°C (34°F)
Dewpoint: -1.0°C (30°F) [RH = 86%]
Pressure (altimeter): 29.85 inches Hg (1011.0 mb)
Winds: from the S (190 degrees) at 13 MPH (11 knots; 5.7 m/s)
Visibility: 6 or more miles (10+ km)
Ceiling: 600 feet AGL
Clouds: broken clouds at 600 feet AGL
Weather: no significant weather observed at this time

METAR text: ENGM 160250Z 19010KT 9000 BKN006 00/M01 Q1011
Conditions at: ENGM (OSLO/GARDERMOEN , NO) observed 0250 UTC 16 February 2019
Temperature: 0.0°C (32°F)
Dewpoint: -1.0°C (30°F) [RH = 93%]
Pressure (altimeter): 29.85 inches Hg (1011.0 mb)
Winds: from the S (190 degrees) at 12 MPH (10 knots; 5.1 m/s)
Visibility: 6 miles ( 9 km)
Ceiling: 600 feet AGL
Clouds: broken clouds at 600 feet AGL
Weather: no significant weather observed at this time

METAR text: ENGM 160220Z 19007KT 9000 OVC005 01/M01 Q1011
Conditions at: ENGM (OSLO/GARDERMOEN , NO) observed 0220 UTC 16 February 2019
Temperature: 1.0°C (34°F)
Dewpoint: -1.0°C (30°F) [RH = 86%]
Pressure (altimeter): 29.85 inches Hg (1011.0 mb)
Winds: from the S (190 degrees) at 8 MPH (7 knots; 3.6 m/s)
Visibility: 6 miles ( 9 km)
Ceiling: 500 feet AGL
Clouds: overcast cloud deck at 500 feet AGL
Weather: no significant weather observed at this time

METAR text: ENGM 160150Z 19009KT 9999 8000E BKN006 01/M01 Q1012
Conditions at: ENGM (OSLO/GARDERMOEN , NO) observed 0150 UTC 16 February 2019
Temperature: 1.0°C (34°F)
Dewpoint: -1.0°C (30°F) [RH = 86%]
Pressure (altimeter): 29.88 inches Hg (1012.0 mb)
Winds: from the S (190 degrees) at 10 MPH (9 knots; 4.6 m/s)
Visibility: 6 or more miles (10+ km)
Ceiling: 600 feet AGL
Clouds: broken clouds at 600 feet AGL
Weather: no significant weather observed at this time

METAR text: ENGM 160120Z 20007KT 9999 8000NE BKN006 01/M01 Q1012
Conditions at: ENGM (OSLO/GARDERMOEN , NO) observed 0120 UTC 16 February 2019
Temperature: 1.0°C (34°F)
Dewpoint: -1.0°C (30°F) [RH = 86%]
Pressure (altimeter): 29.88 inches Hg (1012.0 mb)
Winds: from the SSW (200 degrees) at 8 MPH (7 knots; 3.6 m/s)
Visibility: 6 or more miles (10+ km)
Ceiling: 600 feet AGL
Clouds: broken clouds at 600 feet AGL
Weather: no significant weather observed at this time

METAR text: ENGM 160050Z 19006KT 9999 8000NE BKN007 01/M01 Q1013
Conditions at: ENGM (OSLO/GARDERMOEN , NO) observed 0050 UTC 16 February 2019
Temperature: 1.0°C (34°F)
Dewpoint: -1.0°C (30°F) [RH = 86%]
Pressure (altimeter): 29.91 inches Hg (1013.0 mb)
Winds: from the S (190 degrees) at 7 MPH (6 knots; 3.1 m/s)
Visibility: 6 or more miles (10+ km)
Ceiling: 700 feet AGL
Clouds: broken clouds at 700 feet AGL
Weather: no significant weather observed at this time

METAR text: ENGM 160020Z 21006KT 9999 9000E BKN007 01/M00 Q1013
Conditions at: ENGM (OSLO/GARDERMOEN , NO) observed 0020 UTC 16 February 2019
Temperature: 1.0°C (34°F)
Dewpoint: 0.0°C (32°F) [RH = 93%]
Pressure (altimeter): 29.91 inches Hg (1013.0 mb)
Winds: from the SSW (210 degrees) at 7 MPH (6 knots; 3.1 m/s)
Visibility: 6 or more miles (10+ km)
Ceiling: 700 feet AGL
Clouds: broken clouds at 700 feet AGL
Weather: no significant weather observed at this time

METAR text: ENGM 152350Z 18005KT 9999 9000E SCT006 BKN008 01/M00 Q1014
Conditions at: ENGM (OSLO/GARDERMOEN , NO) observed 2350 UTC 15 February 2019
Temperature: 1.0°C (34°F)
Dewpoint: 0.0°C (32°F) [RH = 93%]
Pressure (altimeter): 29.94 inches Hg (1014.0 mb)
Winds: from the S (180 degrees) at 6 MPH (5 knots; 2.6 m/s)
Visibility: 6 or more miles (10+ km)
Ceiling: 800 feet AGL
Clouds: scattered clouds at 600 feet AGL
broken clouds at 800 feet AGL
Weather: no significant weather observed at this time

METAR text: ENGM 152320Z 20005KT 9999 9000E FEW005 BKN008 01/M00 Q1014
Conditions at: ENGM (OSLO/GARDERMOEN , NO) observed 2320 UTC 15 February 2019
Temperature: 1.0°C (34°F)
Dewpoint: 0.0°C (32°F) [RH = 93%]
Pressure (altimeter): 29.94 inches Hg (1014.0 mb)
Winds: from the SSW (200 degrees) at 6 MPH (5 knots; 2.6 m/s)
Visibility: 6 or more miles (10+ km)
Ceiling: 800 feet AGL
Clouds: few clouds at 500 feet AGL
broken clouds at 800 feet AGL
Weather: no significant weather observed at this time

METAR text: ENGM 152250Z 15004KT 110V170 9999 BKN007 01/00 Q1015
Conditions at: ENGM (OSLO/GARDERMOEN , NO) observed 2250 UTC 15 February 2019
Temperature: 1.0°C (34°F)
Dewpoint: 0.0°C (32°F) [RH = 93%]
Pressure (altimeter): 29.97 inches Hg (1015.0 mb)
Winds: from the SSE (150 degrees) at 5 MPH (4 knots; 2.1 m/s)
Visibility: 6 or more miles (10+ km)
Ceiling: 700 feet AGL
Clouds: broken clouds at 700 feet AGL
Weather: no significant weather observed at this time

METAR text: ENGM 152220Z 19007KT 9999 8000E BKN007 02/00 Q1015
Conditions at: ENGM (OSLO/GARDERMOEN , NO) observed 2220 UTC 15 February 2019
Temperature: 2.0°C (36°F)
Dewpoint: 0.0°C (32°F) [RH = 87%]
Pressure (altimeter): 29.97 inches Hg (1015.0 mb)
Winds: from the S (190 degrees) at 8 MPH (7 knots; 3.6 m/s)
Visibility: 6 or more miles (10+ km)
Ceiling: 700 feet AGL
Clouds: broken clouds at 700 feet AGL
Weather: no significant weather observed at this time

METAR text: ENGM 152120Z 20005KT 9999 8000NE BKN006 02/01 Q1016 NOSIG
Conditions at: ENGM (OSLO/GARDERMOEN , NO) observed 2120 UTC 15 February 2019
Temperature: 2.0°C (36°F)
Dewpoint: 1.0°C (34°F) [RH = 93%]
Pressure (altimeter): 30.00 inches Hg (1016.0 mb)
Winds: from the SSW (200 degrees) at 6 MPH (5 knots; 2.6 m/s)
Visibility: 6 or more miles (10+ km)
Ceiling: 600 feet AGL
Clouds: broken clouds at 600 feet AGL
Weather: no significant weather observed at this time

METAR text: ENGM 152050Z 19006KT 9999 7000NE SCT005 BKN007 02/01 Q1016 NOSIG
Conditions at: ENGM (OSLO/GARDERMOEN , NO) observed 2050 UTC 15 February 2019
Temperature: 2.0°C (36°F)
Dewpoint: 1.0°C (34°F) [RH = 93%]
Pressure (altimeter): 30.00 inches Hg (1016.0 mb)
Winds: from the S (190 degrees) at 7 MPH (6 knots; 3.1 m/s)
Visibility: 6 or more miles (10+ km)
Ceiling: 700 feet AGL
Clouds: scattered clouds at 500 feet AGL
broken clouds at 700 feet AGL
Weather: no significant weather observed at this time

METAR text: ENGM 152020Z 19007KT 160V230 9999 6000NE SCT005 OVC007 02/01 Q1017 NOSIG
Conditions at: ENGM (OSLO/GARDERMOEN , NO) observed 2020 UTC 15 February 2019
Temperature: 2.0°C (36°F)
Dewpoint: 1.0°C (34°F) [RH = 93%]
Pressure (altimeter): 30.03 inches Hg (1017.0 mb)
Winds: from the S (190 degrees) at 8 MPH (7 knots; 3.6 m/s)
Visibility: 6 or more miles (10+ km)
Ceiling: 700 feet AGL
Clouds: scattered clouds at 500 feet AGL
overcast cloud deck at 700 feet AGL
Weather: no significant weather observed at this time

METAR text: ENGM 151950Z 18007KT 9000 SCT004 OVC006 01/01 Q1017 TEMPO 4000 BR BKN003
Conditions at: ENGM (OSLO/GARDERMOEN , NO) observed 1950 UTC 15 February 2019
Temperature: 1.0°C (34°F)
Dewpoint: 1.0°C (34°F) [RH = 100%]
Pressure (altimeter): 30.03 inches Hg (1017.0 mb)
Winds: from the S (180 degrees) at 8 MPH (7 knots; 3.6 m/s)
Visibility: 6 miles ( 9 km)
Ceiling: 600 feet AGL
Clouds: scattered clouds at 400 feet AGL
overcast cloud deck at 600 feet AGL
Weather: no significant weather observed at this time

METAR text: ENGM 151920Z 20008KT 8000 SCT003 OVC006 01/01 Q1017 TEMPO 4000 BR BKN003
Conditions at: ENGM (OSLO/GARDERMOEN , NO) observed 1920 UTC 15 February 2019
Temperature: 1.0°C (34°F)
Dewpoint: 1.0°C (34°F) [RH = 100%]
Pressure (altimeter): 30.03 inches Hg (1017.0 mb)
Winds: from the SSW (200 degrees) at 9 MPH (8 knots; 4.1 m/s)
Visibility: 5 miles ( 8 km)
Ceiling: 600 feet AGL
Clouds: scattered clouds at 300 feet AGL
overcast cloud deck at 600 feet AGL
Weather: no significant weather observed at this time

METAR text: ENGM 151850Z 20010KT 6000 VCFG OVC002 01/01 Q1018 TEMPO 0800 FG
Conditions at: ENGM (OSLO/GARDERMOEN , NO) observed 1850 UTC 15 February 2019
Temperature: 1.0°C (34°F)
Dewpoint: 1.0°C (34°F) [RH = 100%]
Pressure (altimeter): 30.06 inches Hg (1018.0 mb)
Winds: from the SSW (200 degrees) at 12 MPH (10 knots; 5.1 m/s)
Visibility: 4 miles ( 6 km)
Ceiling: 200 feet AGL
Clouds: overcast cloud deck at 200 feet AGL
Weather: VCFG  (fog in vicinity)

METAR text: ENGM 151820Z 19008KT 3500 BR VV002 01/01 Q1018
Conditions at: ENGM (OSLO/GARDERMOEN , NO) observed 1820 UTC 15 February 2019
Temperature: 1.0°C (34°F)
Dewpoint: 1.0°C (34°F) [RH = 100%]
Pressure (altimeter): 30.06 inches Hg (1018.0 mb)
Winds: from the S (190 degrees) at 9 MPH (8 knots; 4.1 m/s)
Visibility: 2.17 miles (3.49 km)
Ceiling: indefinite ceiling with vertical visibility of 200 feet AGL
Clouds: obscured sky
Weather: BR  (mist)

METAR text: ENGM 151750Z 19010KT 6000 3000S BR VV002 01/01 Q1018 TEMPO 1200 BR
Conditions at: ENGM (OSLO/GARDERMOEN , NO) observed 1750 UTC 15 February 2019
Temperature: 1.0°C (34°F)
Dewpoint: 1.0°C (34°F) [RH = 100%]
Pressure (altimeter): 30.06 inches Hg (1018.0 mb)
Winds: from the S (190 degrees) at 12 MPH (10 knots; 5.1 m/s)
Visibility: 4 miles ( 6 km)
Ceiling: indefinite ceiling with vertical visibility of 200 feet AGL
Clouds: obscured sky
Weather: BR  (mist)

METAR text: ENGM 151720Z 20008KT 3500 1500S BR VV002 01/01 Q1018 TEMPO 0800 FG
Conditions at: ENGM (OSLO/GARDERMOEN , NO) observed 1720 UTC 15 February 2019
Temperature: 1.0°C (34°F)
Dewpoint: 1.0°C (34°F) [RH = 100%]
Pressure (altimeter): 30.06 inches Hg (1018.0 mb)
Winds: from the SSW (200 degrees) at 9 MPH (8 knots; 4.1 m/s)
Visibility: 2.17 miles (3.49 km)
Ceiling: indefinite ceiling with vertical visibility of 200 feet AGL
Clouds: obscured sky
Weather: BR  (mist)

METAR text: ENGM 151650Z 18006KT 1600 0800S R19R/P2000N R01R/0900N BCFG VV001 01/00 Q1019 TEMPO 0400 FG
Conditions at: ENGM (OSLO/GARDERMOEN , NO) observed 1650 UTC 15 February 2019
Temperature: 1.0°C (34°F)
Dewpoint: 0.0°C (32°F) [RH = 93%]
Pressure (altimeter): 30.09 inches Hg (1019.0 mb)
Winds: from the S (180 degrees) at 7 MPH (6 knots; 3.1 m/s)
Visibility: 0.99 miles (1.59 km)
Ceiling: indefinite ceiling with vertical visibility of 100 feet AGL
Clouds: obscured sky
Weather: BCFG  (patches of fog)

METAR text: ENGM 151620Z 19005KT 2200 0500S R19R/P2000N R01R/0550D BR VV002 01/00 Q1019 TEMPO 1200 BR
Conditions at: ENGM (OSLO/GARDERMOEN , NO) observed 1620 UTC 15 February 2019
Temperature: 1.0°C (34°F)
Dewpoint: 0.0°C (32°F) [RH = 93%]
Pressure (altimeter): 30.09 inches Hg (1019.0 mb)
Winds: from the S (190 degrees) at 6 MPH (5 knots; 2.6 m/s)
Visibility: 1.37 miles (2.20 km)
Ceiling: indefinite ceiling with vertical visibility of 200 feet AGL
Clouds: obscured sky
Weather: BR  (mist)

METAR text: ENGM 151550Z 18007KT 150V220 5000 0800S R19R/P2000N R01R/1100D BR OVC002 01/01 Q1019 TEMPO 4000 BR
Conditions at: ENGM (OSLO/GARDERMOEN , NO) observed 1550 UTC 15 February 2019
Temperature: 1.0°C (34°F)
Dewpoint: 1.0°C (34°F) [RH = 100%]
Pressure (altimeter): 30.09 inches Hg (1019.0 mb)
Winds: from the S (180 degrees) at 8 MPH (7 knots; 3.6 m/s)
Visibility: 3 miles ( 5 km)
Ceiling: 200 feet AGL
Clouds: overcast cloud deck at 200 feet AGL
Weather: BR  (mist)

METAR text: ENGM 151520Z 18007KT 9000 1000W R19R/P2000N R01R/1000D BR OVC002 02/01 Q1019 TEMPO 4000 BR
Conditions at: ENGM (OSLO/GARDERMOEN , NO) observed 1520 UTC 15 February 2019
Temperature: 2.0°C (36°F)
Dewpoint: 1.0°C (34°F) [RH = 93%]
Pressure (altimeter): 30.09 inches Hg (1019.0 mb)
Winds: from the S (180 degrees) at 8 MPH (7 knots; 3.6 m/s)
Visibility: 6 miles ( 9 km)
Ceiling: 200 feet AGL
Clouds: overcast cloud deck at 200 feet AGL
Weather: BR  (mist)

METAR text: ENGM 151450Z 17008KT 5000 1000W R19R/P2000N R01R/1300U BR OVC002 02/01 Q1020 TEMPO 2000 BR
Conditions at: ENGM (OSLO/GARDERMOEN , NO) observed 1450 UTC 15 February 2019
Temperature: 2.0°C (36°F)
Dewpoint: 1.0°C (34°F) [RH = 93%]
Pressure (altimeter): 30.12 inches Hg (1020.0 mb)
Winds: from the S (170 degrees) at 9 MPH (8 knots; 4.1 m/s)
Visibility: 3 miles ( 5 km)
Ceiling: 200 feet AGL
Clouds: overcast cloud deck at 200 feet AGL
Weather: BR  (mist)

METAR text: ENGM 151420Z 18010KT 5000 1000S R19R/P2000N R01R/1100D BR OVC002 02/01 Q1020 TEMPO 2000 BR
Conditions at: ENGM (OSLO/GARDERMOEN , NO) observed 1420 UTC 15 February 2019
Temperature: 2.0°C (36°F)
Dewpoint: 1.0°C (34°F) [RH = 93%]
Pressure (altimeter): 30.12 inches Hg (1020.0 mb)
Winds: from the S (180 degrees) at 12 MPH (10 knots; 5.1 m/s)
Visibility: 3 miles ( 5 km)
Ceiling: 200 feet AGL
Clouds: overcast cloud deck at 200 feet AGL
Weather: BR  (mist)

METAR text: ENGM 151350Z 17010KT 3000 1000S R19R/P2000N R01R/1100N BR OVC002 02/01 Q1020 TEMPO 2000 BR
Conditions at: ENGM (OSLO/GARDERMOEN , NO) observed 1350 UTC 15 February 2019
Temperature: 2.0°C (36°F)
Dewpoint: 1.0°C (34°F) [RH = 93%]
Pressure (altimeter): 30.12 inches Hg (1020.0 mb)
Winds: from the S (170 degrees) at 12 MPH (10 knots; 5.1 m/s)
Visibility: 1.86 miles (2.99 km)
Ceiling: 200 feet AGL
Clouds: overcast cloud deck at 200 feet AGL
Weather: BR  (mist)

METAR text: ENGM 151320Z 16009KT 4600 1200S R19R/P2000N R01R/1300U BR OVC002 02/01 Q1021 TEMPO 2000 BR
Conditions at: ENGM (OSLO/GARDERMOEN , NO) observed 1320 UTC 15 February 2019
Temperature: 2.0°C (36°F)
Dewpoint: 1.0°C (34°F) [RH = 93%]
Pressure (altimeter): 30.15 inches Hg (1021.0 mb)
Winds: from the SSE (160 degrees) at 10 MPH (9 knots; 4.6 m/s)
Visibility: 2.86 miles (4.60 km)
Ceiling: 200 feet AGL
Clouds: overcast cloud deck at 200 feet AGL
Weather: BR  (mist)

METAR text: ENGM 151250Z 17010KT 5000 1000S R19R/P2000N R01R/1700N BR OVC004 02/01 Q1021 TEMPO 2000 BR
Conditions at: ENGM (OSLO/GARDERMOEN , NO) observed 1250 UTC 15 February 2019
Temperature: 2.0°C (36°F)
Dewpoint: 1.0°C (34°F) [RH = 93%]
Pressure (altimeter): 30.15 inches Hg (1021.0 mb)
Winds: from the S (170 degrees) at 12 MPH (10 knots; 5.1 m/s)
Visibility: 3 miles ( 5 km)
Ceiling: 400 feet AGL
Clouds: overcast cloud deck at 400 feet AGL
Weather: BR  (mist)

METAR text: ENGM 151220Z 16010KT 9000 VCFG SCT003 SCT009 BKN100 03/02 Q1021 TEMPO BKN003
Conditions at: ENGM (OSLO/GARDERMOEN , NO) observed 1220 UTC 15 February 2019
Temperature: 3.0°C (37°F)
Dewpoint: 2.0°C (36°F) [RH = 93%]
Pressure (altimeter): 30.15 inches Hg (1021.0 mb)
Winds: from the SSE (160 degrees) at 12 MPH (10 knots; 5.1 m/s)
Visibility: 6 miles ( 9 km)
Ceiling: 10000 feet AGL
Clouds: scattered clouds at 300 feet AGL
scattered clouds at 900 feet AGL
broken clouds at 10000 feet AGL
Weather: VCFG  (fog in vicinity)

METAR text: ENGM 151150Z 17011KT 9999 FEW004 BKN180 03/01 Q1021 TEMPO BKN004
Conditions at: ENGM (OSLO/GARDERMOEN , NO) observed 1150 UTC 15 February 2019
Temperature: 3.0°C (37°F)
Dewpoint: 1.0°C (34°F) [RH = 87%]
Pressure (altimeter): 30.15 inches Hg (1021.0 mb)
Winds: from the S (170 degrees) at 13 MPH (11 knots; 5.7 m/s)
Visibility: 6 or more miles (10+ km)
Ceiling: 18000 feet AGL
Clouds: few clouds at 400 feet AGL
broken clouds at 18000 feet AGL
Weather: no significant weather observed at this time

METAR text: ENGM 151120Z 17007KT 150V210 9999 FEW004 SCT180 03/02 Q1021 NOSIG
Conditions at: ENGM (OSLO/GARDERMOEN , NO) observed 1120 UTC 15 February 2019
Temperature: 3.0°C (37°F)
Dewpoint: 2.0°C (36°F) [RH = 93%]
Pressure (altimeter): 30.15 inches Hg (1021.0 mb)
Winds: from the S (170 degrees) at 8 MPH (7 knots; 3.6 m/s)
Visibility: 6 or more miles (10+ km)
Ceiling: at least 12,000 feet AGL
Clouds: few clouds at 400 feet AGL
scattered clouds at 18000 feet AGL
Weather: no significant weather observed at this time

METAR text: ENGM 151050Z 17010KT 9999 VCFG FEW003 BKN180 03/01 Q1021 NOSIG
Conditions at: ENGM (OSLO/GARDERMOEN , NO) observed 1050 UTC 15 February 2019
Temperature: 3.0°C (37°F)
Dewpoint: 1.0°C (34°F) [RH = 87%]
Pressure (altimeter): 30.15 inches Hg (1021.0 mb)
Winds: from the S (170 degrees) at 12 MPH (10 knots; 5.1 m/s)
Visibility: 6 or more miles (10+ km)
Ceiling: 18000 feet AGL
Clouds: few clouds at 300 feet AGL
broken clouds at 18000 feet AGL
Weather: VCFG  (fog in vicinity)

METAR text: ENGM 151020Z 17008KT 9999 8000SE VCFG SCT003 BKN170 03/01 Q1022 TEMPO 2000 BCFG BKN002
Conditions at: ENGM (OSLO/GARDERMOEN , NO) observed 1020 UTC 15 February 2019
Temperature: 3.0°C (37°F)
Dewpoint: 1.0°C (34°F) [RH = 87%]
Pressure (altimeter): 30.18 inches Hg (1022.0 mb)
Winds: from the S (170 degrees) at 9 MPH (8 knots; 4.1 m/s)
Visibility: 6 or more miles (10+ km)
Ceiling: 17000 feet AGL
Clouds: scattered clouds at 300 feet AGL
broken clouds at 17000 feet AGL
Weather: VCFG  (fog in vicinity)

METAR text: ENGM 150950Z 17008KT 9999 8000SE VCFG SCT002 BKN170 02/01 Q1022 TEMPO 2000 BCFG BKN002
Conditions at: ENGM (OSLO/GARDERMOEN , NO) observed 0950 UTC 15 February 2019
Temperature: 2.0°C (36°F)
Dewpoint: 1.0°C (34°F) [RH = 93%]
Pressure (altimeter): 30.18 inches Hg (1022.0 mb)
Winds: from the S (170 degrees) at 9 MPH (8 knots; 4.1 m/s)
Visibility: 6 or more miles (10+ km)
Ceiling: 17000 feet AGL
Clouds: scattered clouds at 200 feet AGL
broken clouds at 17000 feet AGL
Weather: VCFG  (fog in vicinity)

METAR text: ENGM 150920Z 17010KT 9999 8000SE VCFG SCT002 BKN170 02/01 Q1022 TEMPO 2000 BCFG BKN002
Conditions at: ENGM (OSLO/GARDERMOEN , NO) observed 0920 UTC 15 February 2019
Temperature: 2.0°C (36°F)
Dewpoint: 1.0°C (34°F) [RH = 93%]
Pressure (altimeter): 30.18 inches Hg (1022.0 mb)
Winds: from the S (170 degrees) at 12 MPH (10 knots; 5.1 m/s)
Visibility: 6 or more miles (10+ km)
Ceiling: 17000 feet AGL
Clouds: scattered clouds at 200 feet AGL
broken clouds at 17000 feet AGL
Weather: VCFG  (fog in vicinity)

METAR text: ENGM 150850Z 17008KT 9999 FEW003 BKN180 02/01 Q1022 NOSIG
Conditions at: ENGM (OSLO/GARDERMOEN , NO) observed 0850 UTC 15 February 2019
Temperature: 2.0°C (36°F)
Dewpoint: 1.0°C (34°F) [RH = 93%]
Pressure (altimeter): 30.18 inches Hg (1022.0 mb)
Winds: from the S (170 degrees) at 9 MPH (8 knots; 4.1 m/s)
Visibility: 6 or more miles (10+ km)
Ceiling: 18000 feet AGL
Clouds: few clouds at 300 feet AGL
broken clouds at 18000 feet AGL
Weather: no significant weather observed at this time

METAR text: ENGM 150820Z 17009KT 9999 FEW003 BKN170 02/01 Q1022
Conditions at: ENGM (OSLO/GARDERMOEN , NO) observed 0820 UTC 15 February 2019
Temperature: 2.0°C (36°F)
Dewpoint: 1.0°C (34°F) [RH = 93%]
Pressure (altimeter): 30.18 inches Hg (1022.0 mb)
Winds: from the S (170 degrees) at 10 MPH (9 knots; 4.6 m/s)
Visibility: 6 or more miles (10+ km)
Ceiling: 17000 feet AGL
Clouds: few clouds at 300 feet AGL
broken clouds at 17000 feet AGL
Weather: no significant weather observed at this time

METAR text: ENGM 150750Z 16009KT 9999 FEW010 BKN180 03/01 Q1022 NOSIG
Conditions at: ENGM (OSLO/GARDERMOEN , NO) observed 0750 UTC 15 February 2019
Temperature: 3.0°C (37°F)
Dewpoint: 1.0°C (34°F) [RH = 87%]
Pressure (altimeter): 30.18 inches Hg (1022.0 mb)
Winds: from the SSE (160 degrees) at 10 MPH (9 knots; 4.6 m/s)
Visibility: 6 or more miles (10+ km)
Ceiling: 18000 feet AGL
Clouds: few clouds at 1000 feet AGL
broken clouds at 18000 feet AGL
Weather: no significant weather observed at this time

METAR text: ENGM 150720Z 21008KT 9999 FEW010 BKN180 02/01 Q1022 NOSIG
Conditions at: ENGM (OSLO/GARDERMOEN , NO) observed 0720 UTC 15 February 2019
Temperature: 2.0°C (36°F)
Dewpoint: 1.0°C (34°F) [RH = 93%]
Pressure (altimeter): 30.18 inches Hg (1022.0 mb)
Winds: from the SSW (210 degrees) at 9 MPH (8 knots; 4.1 m/s)
Visibility: 6 or more miles (10+ km)
Ceiling: 18000 feet AGL
Clouds: few clouds at 1000 feet AGL
broken clouds at 18000 feet AGL
Weather: no significant weather observed at this time

METAR text: ENGM 150650Z 16006KT CAVOK 03/01 Q1021 NOSIG
Conditions at: ENGM (OSLO/GARDERMOEN , NO) observed 0650 UTC 15 February 2019
Temperature: 3.0°C (37°F)
Dewpoint: 1.0°C (34°F) [RH = 87%]
Pressure (altimeter): 30.15 inches Hg (1021.0 mb)
Winds: from the SSE (160 degrees) at 7 MPH (6 knots; 3.1 m/s)
Visibility: 6 or more miles (10+ km)
Ceiling: ceiling and visibility are OK
Clouds: unknown
Weather: no significant weather observed at this time

METAR text: ENGM 150620Z 16006KT CAVOK 03/01 Q1022 NOSIG
Conditions at: ENGM (OSLO/GARDERMOEN , NO) observed 0620 UTC 15 February 2019
Temperature: 3.0°C (37°F)
Dewpoint: 1.0°C (34°F) [RH = 87%]
Pressure (altimeter): 30.18 inches Hg (1022.0 mb)
Winds: from the SSE (160 degrees) at 7 MPH (6 knots; 3.1 m/s)
Visibility: 6 or more miles (10+ km)
Ceiling: ceiling and visibility are OK
Clouds: unknown
Weather: no significant weather observed at this time

METAR text: ENGM 150550Z 15008KT 140V200 CAVOK 03/01 Q1021 NOSIG
Conditions at: ENGM (OSLO/GARDERMOEN , NO) observed 0550 UTC 15 February 2019
Temperature: 3.0°C (37°F)
Dewpoint: 1.0°C (34°F) [RH = 87%]
Pressure (altimeter): 30.15 inches Hg (1021.0 mb)
Winds: from the SSE (150 degrees) at 9 MPH (8 knots; 4.1 m/s)
Visibility: 6 or more miles (10+ km)
Ceiling: ceiling and visibility are OK
Clouds: unknown
Weather: no significant weather observed at this time

METAR text: ENGM 150520Z 16007KT CAVOK 03/01 Q1021 NOSIG
Conditions at: ENGM (OSLO/GARDERMOEN , NO) observed 0520 UTC 15 February 2019
Temperature: 3.0°C (37°F)
Dewpoint: 1.0°C (34°F) [RH = 87%]
Pressure (altimeter): 30.15 inches Hg (1021.0 mb)
Winds: from the SSE (160 degrees) at 8 MPH (7 knots; 3.6 m/s)
Visibility: 6 or more miles (10+ km)
Ceiling: ceiling and visibility are OK
Clouds: unknown
Weather: no significant weather observed at this time

METAR text: ENGM 150450Z 21007KT CAVOK 02/01 Q1021 NOSIG
Conditions at: ENGM (OSLO/GARDERMOEN , NO) observed 0450 UTC 15 February 2019
Temperature: 2.0°C (36°F)
Dewpoint: 1.0°C (34°F) [RH = 93%]
Pressure (altimeter): 30.15 inches Hg (1021.0 mb)
Winds: from the SSW (210 degrees) at 8 MPH (7 knots; 3.6 m/s)
Visibility: 6 or more miles (10+ km)
Ceiling: ceiling and visibility are OK
Clouds: unknown
Weather: no significant weather observed at this time

METAR text: ENGM 150420Z 18008KT CAVOK 03/01 Q1021
Conditions at: ENGM (OSLO/GARDERMOEN , NO) observed 0420 UTC 15 February 2019
Temperature: 3.0°C (37°F)
Dewpoint: 1.0°C (34°F) [RH = 87%]
Pressure (altimeter): 30.15 inches Hg (1021.0 mb)
Winds: from the S (180 degrees) at 9 MPH (8 knots; 4.1 m/s)
Visibility: 6 or more miles (10+ km)
Ceiling: ceiling and visibility are OK
Clouds: unknown
Weather: no significant weather observed at this time

METAR text: ENGM 150350Z 18009KT CAVOK 04/01 Q1021
Conditions at: ENGM (OSLO/GARDERMOEN , NO) observed 0350 UTC 15 February 2019
Temperature: 4.0°C (39°F)
Dewpoint: 1.0°C (34°F) [RH = 81%]
Pressure (altimeter): 30.15 inches Hg (1021.0 mb)
Winds: from the S (180 degrees) at 10 MPH (9 knots; 4.6 m/s)
Visibility: 6 or more miles (10+ km)
Ceiling: ceiling and visibility are OK
Clouds: unknown
Weather: no significant weather observed at this time

METAR text: ENGM 150320Z 17010KT CAVOK 04/01 Q1021
Conditions at: ENGM (OSLO/GARDERMOEN , NO) observed 0320 UTC 15 February 2019
Temperature: 4.0°C (39°F)
Dewpoint: 1.0°C (34°F) [RH = 81%]
Pressure (altimeter): 30.15 inches Hg (1021.0 mb)
Winds: from the S (170 degrees) at 12 MPH (10 knots; 5.1 m/s)
Visibility: 6 or more miles (10+ km)
Ceiling: ceiling and visibility are OK
Clouds: unknown
Weather: no significant weather observed at this time

METAR text: ENGM 150250Z 15009KT CAVOK 04/01 Q1022
Conditions at: ENGM (OSLO/GARDERMOEN , NO) observed 0250 UTC 15 February 2019
Temperature: 4.0°C (39°F)
Dewpoint: 1.0°C (34°F) [RH = 81%]
Pressure (altimeter): 30.18 inches Hg (1022.0 mb)
Winds: from the SSE (150 degrees) at 10 MPH (9 knots; 4.6 m/s)
Visibility: 6 or more miles (10+ km)
Ceiling: ceiling and visibility are OK
Clouds: unknown
Weather: no significant weather observed at this time

METAR text: ENGM 150220Z 13009KT CAVOK 03/00 Q1022
Conditions at: ENGM (OSLO/GARDERMOEN , NO) observed 0220 UTC 15 February 2019
Temperature: 3.0°C (37°F)
Dewpoint: 0.0°C (32°F) [RH = 81%]
Pressure (altimeter): 30.18 inches Hg (1022.0 mb)
Winds: from the SE (130 degrees) at 10 MPH (9 knots; 4.6 m/s)
Visibility: 6 or more miles (10+ km)
Ceiling: ceiling and visibility are OK
Clouds: unknown
Weather: no significant weather observed at this time

METAR text: ENGM 150150Z 14006KT CAVOK 03/01 Q1021
Conditions at: ENGM (OSLO/GARDERMOEN , NO) observed 0150 UTC 15 February 2019
Temperature: 3.0°C (37°F)
Dewpoint: 1.0°C (34°F) [RH = 87%]
Pressure (altimeter): 30.15 inches Hg (1021.0 mb)
Winds: from the SE (140 degrees) at 7 MPH (6 knots; 3.1 m/s)
Visibility: 6 or more miles (10+ km)
Ceiling: ceiling and visibility are OK
Clouds: unknown
Weather: no significant weather observed at this time

METAR text: ENGM 150120Z 26003KT 210V360 CAVOK 06/02 Q1021
Conditions at: ENGM (OSLO/GARDERMOEN , NO) observed 0120 UTC 15 February 2019
Temperature: 6.0°C (43°F)
Dewpoint: 2.0°C (36°F) [RH = 75%]
Pressure (altimeter): 30.15 inches Hg (1021.0 mb)
Winds: from the W (260 degrees) at 3 MPH (3 knots; 1.5 m/s)
Visibility: 6 or more miles (10+ km)
Ceiling: ceiling and visibility are OK
Clouds: unknown
Weather: no significant weather observed at this time

METAR text: ENGM 150050Z 20007KT 170V230 CAVOK 06/02 Q1021
Conditions at: ENGM (OSLO/GARDERMOEN , NO) observed 0050 UTC 15 February 2019
Temperature: 6.0°C (43°F)
Dewpoint: 2.0°C (36°F) [RH = 75%]
Pressure (altimeter): 30.15 inches Hg (1021.0 mb)
Winds: from the SSW (200 degrees) at 8 MPH (7 knots; 3.6 m/s)
Visibility: 6 or more miles (10+ km)
Ceiling: ceiling and visibility are OK
Clouds: unknown
Weather: no significant weather observed at this time

METAR text: ENGM 150020Z 16005KT CAVOK 04/01 Q1021
Conditions at: ENGM (OSLO/GARDERMOEN , NO) observed 0020 UTC 15 February 2019
Temperature: 4.0°C (39°F)
Dewpoint: 1.0°C (34°F) [RH = 81%]
Pressure (altimeter): 30.15 inches Hg (1021.0 mb)
Winds: from the SSE (160 degrees) at 6 MPH (5 knots; 2.6 m/s)
Visibility: 6 or more miles (10+ km)
Ceiling: ceiling and visibility are OK
Clouds: unknown
Weather: no significant weather observed at this time

METAR text: ENGM 142350Z VRB03KT CAVOK 06/02 Q1021
Conditions at: ENGM (OSLO/GARDERMOEN , NO) observed 2350 UTC 14 February 2019
Temperature: 6.0°C (43°F)
Dewpoint: 2.0°C (36°F) [RH = 75%]
Pressure (altimeter): 30.15 inches Hg (1021.0 mb)
Winds: variable direction winds at 3 MPH (3 knots; 1.5 m/s)
Visibility: 6 or more miles (10+ km)
Ceiling: ceiling and visibility are OK
Clouds: unknown
Weather: no significant weather observed at this time

METAR text: ENGM 142320Z 21005KT CAVOK 03/01 Q1021
Conditions at: ENGM (OSLO/GARDERMOEN , NO) observed 2320 UTC 14 February 2019
Temperature: 3.0°C (37°F)
Dewpoint: 1.0°C (34°F) [RH = 87%]
Pressure (altimeter): 30.15 inches Hg (1021.0 mb)
Winds: from the SSW (210 degrees) at 6 MPH (5 knots; 2.6 m/s)
Visibility: 6 or more miles (10+ km)
Ceiling: ceiling and visibility are OK
Clouds: unknown
Weather: no significant weather observed at this time

METAR text: ENGM 142250Z 22007KT CAVOK 04/01 Q1021
Conditions at: ENGM (OSLO/GARDERMOEN , NO) observed 2250 UTC 14 February 2019
Temperature: 4.0°C (39°F)
Dewpoint: 1.0°C (34°F) [RH = 81%]
Pressure (altimeter): 30.15 inches Hg (1021.0 mb)
Winds: from the SW (220 degrees) at 8 MPH (7 knots; 3.6 m/s)
Visibility: 6 or more miles (10+ km)
Ceiling: ceiling and visibility are OK
Clouds: unknown
Weather: no significant weather observed at this time

METAR text: ENGM 142220Z 22008KT CAVOK 04/01 Q1020
Conditions at: ENGM (OSLO/GARDERMOEN , NO) observed 2220 UTC 14 February 2019
Temperature: 4.0°C (39°F)
Dewpoint: 1.0°C (34°F) [RH = 81%]
Pressure (altimeter): 30.12 inches Hg (1020.0 mb)
Winds: from the SW (220 degrees) at 9 MPH (8 knots; 4.1 m/s)
Visibility: 6 or more miles (10+ km)
Ceiling: ceiling and visibility are OK
Clouds: unknown
Weather: no significant weather observed at this time

METAR text: ENGM 142150Z 21004KT CAVOK 03/01 Q1021 NOSIG
Conditions at: ENGM (OSLO/GARDERMOEN , NO) observed 2150 UTC 14 February 2019
Temperature: 3.0°C (37°F)
Dewpoint: 1.0°C (34°F) [RH = 87%]
Pressure (altimeter): 30.15 inches Hg (1021.0 mb)
Winds: from the SSW (210 degrees) at 5 MPH (4 knots; 2.1 m/s)
Visibility: 6 or more miles (10+ km)
Ceiling: ceiling and visibility are OK
Clouds: unknown
Weather: no significant weather observed at this time

METAR text: ENGM 142120Z 21005KT CAVOK 04/01 Q1020 NOSIG
Conditions at: ENGM (OSLO/GARDERMOEN , NO) observed 2120 UTC 14 February 2019
Temperature: 4.0°C (39°F)
Dewpoint: 1.0°C (34°F) [RH = 81%]
Pressure (altimeter): 30.12 inches Hg (1020.0 mb)
Winds: from the SSW (210 degrees) at 6 MPH (5 knots; 2.6 m/s)
Visibility: 6 or more miles (10+ km)
Ceiling: ceiling and visibility are OK
Clouds: unknown
Weather: no significant weather observed at this time

METAR text: ENGM 142050Z VRB03KT CAVOK 03/01 Q1020 NOSIG
Conditions at: ENGM (OSLO/GARDERMOEN , NO) observed 2050 UTC 14 February 2019
Temperature: 3.0°C (37°F)
Dewpoint: 1.0°C (34°F) [RH = 87%]
Pressure (altimeter): 30.12 inches Hg (1020.0 mb)
Winds: variable direction winds at 3 MPH (3 knots; 1.5 m/s)
Visibility: 6 or more miles (10+ km)
Ceiling: ceiling and visibility are OK
Clouds: unknown
Weather: no significant weather observed at this time

METAR text: ENGM 142020Z 14005KT CAVOK 03/01 Q1020 NOSIG
Conditions at: ENGM (OSLO/GARDERMOEN , NO) observed 2020 UTC 14 February 2019
Temperature: 3.0°C (37°F)
Dewpoint: 1.0°C (34°F) [RH = 87%]
Pressure (altimeter): 30.12 inches Hg (1020.0 mb)
Winds: from the SE (140 degrees) at 6 MPH (5 knots; 2.6 m/s)
Visibility: 6 or more miles (10+ km)
Ceiling: ceiling and visibility are OK
Clouds: unknown
Weather: no significant weather observed at this time

METAR text: ENGM 141950Z 18008KT 140V200 CAVOK 03/01 Q1020 NOSIG
Conditions at: ENGM (OSLO/GARDERMOEN , NO) observed 1950 UTC 14 February 2019
Temperature: 3.0°C (37°F)
Dewpoint: 1.0°C (34°F) [RH = 87%]
Pressure (altimeter): 30.12 inches Hg (1020.0 mb)
Winds: from the S (180 degrees) at 9 MPH (8 knots; 4.1 m/s)
Visibility: 6 or more miles (10+ km)
Ceiling: ceiling and visibility are OK
Clouds: unknown
Weather: no significant weather observed at this time

METAR text: ENGM 141920Z 20006KT CAVOK 04/01 Q1020 NOSIG
Conditions at: ENGM (OSLO/GARDERMOEN , NO) observed 1920 UTC 14 February 2019
Temperature: 4.0°C (39°F)
Dewpoint: 1.0°C (34°F) [RH = 81%]
Pressure (altimeter): 30.12 inches Hg (1020.0 mb)
Winds: from the SSW (200 degrees) at 7 MPH (6 knots; 3.1 m/s)
Visibility: 6 or more miles (10+ km)
Ceiling: ceiling and visibility are OK
Clouds: unknown
Weather: no significant weather observed at this time

METAR text: ENGM 141850Z 15003KT 070V210 CAVOK 03/01 Q1020 NOSIG
Conditions at: ENGM (OSLO/GARDERMOEN , NO) observed 1850 UTC 14 February 2019
Temperature: 3.0°C (37°F)
Dewpoint: 1.0°C (34°F) [RH = 87%]
Pressure (altimeter): 30.12 inches Hg (1020.0 mb)
Winds: from the SSE (150 degrees) at 3 MPH (3 knots; 1.5 m/s)
Visibility: 6 or more miles (10+ km)
Ceiling: ceiling and visibility are OK
Clouds: unknown
Weather: no significant weather observed at this time

METAR text: ENGM 141820Z 23006KT 190V260 CAVOK 03/01 Q1020 NOSIG
Conditions at: ENGM (OSLO/GARDERMOEN , NO) observed 1820 UTC 14 February 2019
Temperature: 3.0°C (37°F)
Dewpoint: 1.0°C (34°F) [RH = 87%]
Pressure (altimeter): 30.12 inches Hg (1020.0 mb)
Winds: from the SW (230 degrees) at 7 MPH (6 knots; 3.1 m/s)
Visibility: 6 or more miles (10+ km)
Ceiling: ceiling and visibility are OK
Clouds: unknown
Weather: no significant weather observed at this time

METAR text: ENGM 141750Z 21012KT CAVOK 03/01 Q1020 NOSIG
Conditions at: ENGM (OSLO/GARDERMOEN , NO) observed 1750 UTC 14 February 2019
Temperature: 3.0°C (37°F)
Dewpoint: 1.0°C (34°F) [RH = 87%]
Pressure (altimeter): 30.12 inches Hg (1020.0 mb)
Winds: from the SSW (210 degrees) at 14 MPH (12 knots; 6.2 m/s)
Visibility: 6 or more miles (10+ km)
Ceiling: ceiling and visibility are OK
Clouds: unknown
Weather: no significant weather observed at this time

METAR text: ENGM 141720Z 21010KT CAVOK 03/01 Q1020 NOSIG
Conditions at: ENGM (OSLO/GARDERMOEN , NO) observed 1720 UTC 14 February 2019
Temperature: 3.0°C (37°F)
Dewpoint: 1.0°C (34°F) [RH = 87%]
Pressure (altimeter): 30.12 inches Hg (1020.0 mb)
Winds: from the SSW (210 degrees) at 12 MPH (10 knots; 5.1 m/s)
Visibility: 6 or more miles (10+ km)
Ceiling: ceiling and visibility are OK
Clouds: unknown
Weather: no significant weather observed at this time

Forecast for: ENGM (OSLO/GARDERMOEN , NO)
Text: TAF ENGM 1600/1624 18010KT 9999 FEW004 BKN008
Forecast period: 0000 to 1000 UTC 16 February 2019
Forecast type: FROM: standard forecast or significant change
Winds: from the S (180 degrees) at 12 MPH (10 knots; 5.1 m/s)
Visibility: 6 or more miles 10+ km)
Ceiling: 800 feet AGL
Clouds: few clouds at 400 feet AGL
broken clouds at 800 feet AGL
Weather: no significant weather forecast for this period
Text: TEMPO 1600/1610 3000 BR OVC003
Forecast period: 0000 to 1000 UTC 16 February 2019
Forecast type: TEMPORARY: The following changes expected for less than half the time period
Visibility: 1.86 miles (2.99 km)
Ceiling: 300 feet AGL
Clouds: overcast cloud deck at 300 feet AGL
Weather: BR  (mist)
Text: BECMG 1610/1612 FEW010
Forecast period: 1000 to 1800 UTC 16 February 2019
Forecast type: BECOMING: Conditions expected to become as follows by 1200 UTC 16 February 2019
Winds: from the S (180 degrees) at 12 MPH (10 knots; 5.1 m/s)
Visibility: 6 or more miles 10+ km)
Ceiling: at least 12,000 feet AGL
Clouds: few clouds at 1000 feet AGL
Weather: no significant weather forecast for this period
Text: BECMG 1618/1620 01007KT
Forecast period: 1800 UTC 16 February 2019 to 0000 UTC 17 February 2019
Forecast type: BECOMING: Conditions expected to become as follows by 2000 UTC 16 February 2019
Winds: from the N (10 degrees) at 8 MPH (7 knots; 3.6 m/s)
Visibility: 6 or more miles 10+ km)
Ceiling: at least 12,000 feet AGL
Clouds: few clouds at 1000 feet AGL
Weather: no significant weather forecast for this period